RELACIONES PÚBLICAS

23/03/2017DÍA METEOROLÓGICO MUNDIAL 2017   Cada 23 de marzo la Organización Meteorológica Mundial (OMM) celebra la entrada en vigencia del Convenio mediante el cual fue creado, en 1950. Este día es conocido como el Día Meteorológico Mundial, y en él se celebra y destaca la importancia que los Servicios Meteorológicos e Hidrológicos Nacionales tienen en cada país, puesto que contribuyen al mantenimiento de la seguridad y el bienestar general. A su vez, a cada Día Meteorológico Mundial se le asigna un tema específico. Este año el tema elegido es " Entendiendo las nubes"; con el fin de resaltar la enorme importancia que revisten las nubes para el tiempo, el clima y el agua.https://www.youtube.com/watch?v=BazVcoxsscw&feature=youtu.behttps://public.wmo.int/es/D%C3%ADa-Meteorol%C3%B3gico-Mundial-2017

Productos aeronáuticos

  • SIGMET
  • METAR / SPECI
  • TAF
  • AIREP
  • Aviso de aeródromo
  • Pronárea
  • Carta superficie
Fecha : 29/03/2017
FTUY 02 SUMU 29 04 00
SUMU TAF 290400Z 2906/3006 04020KT 9999 SCT020 TX26/2918Z TN17/2910Z PROB 30 TEMPO2914/2922 8000 DZ SCT015 SCT070 TEMPO2916/3002 04015G25KT=
SULS TAF 300400Z 2906/3006 04020KT 9999 SCT020 TX26/2918Z TN17/2910Z TEMPO2906/2920 8000 DZ SCT015 SCT070 TEMPO2916/3002 04015G25KT=
SUAA TAF 290400Z 2906/3006 04020KT 9999 SCT020 TX26/2918Z TN17/2910Z PROB 30 TEMPO2914/2922 8000 DZ SCT015 SCT070 TEMPO2916/3002 04015G25KT=
SUCA TAF 290400Z 2906/3006 04020KT 9999 SCT020 TX26/2918Z TN17/2910Z TEMPO2916/3002 04015G25KT=
SUDU TAF 290400Z 2906/3006 04020KT 9999 SCT020 TX26/2918Z TN17/2910Z TEMPO2916/3002 04015G25KT=
SUSO TAF 290400Z 2906/3006 06015KT 9999 SCT020 TX28/2918Z TN18/2910Z TEMPO2920/3004 03015G25KT=
SURV TAF 290400Z 2906/3006 06015KT 9999 SCT020 TX28/2918Z TN18/2910Z TEMPO2920/3004 03015G25KT=

Predictor : Ines Rodriguez


Mensajes TAF vigentes - Internacionales


Argentina
TAF SACO 290500Z 2906/3006 02010KT 9999 BKN020 TX29/2918Z TN19/2910Z TEMPO 2908/2911 32005KT 1200 BR BKN012 BECMG 2913/2916 05015KT 9999 SCT025 FEW040CB
TAF SAAR 290500Z 2906/3006 04010KT CAVOK TX30/2918Z TN19/2909Z BECMG 2909/2911 04015KT SCT035
TAF SABE 290500Z 2906/3006 07015KT 99999 BKN015 TX27/2918Z TN20/2909Z BCMG 2915/2917 09015KT FEW020 BECMG 2921/2923 11015G25KT FEW030
TAF SAEZ 290500Z 2906/3006 06010KT CAVOK TX28/2918Z TN17/2909Z BECMG 2912/2914 05012G20KT FEW030 BECMG 2918/2920 07015KT SCT200
TAF SAME 290500Z 2906/3006 14005KT 9999 BKN020 FEW040CB TN16/2910Z TX27/2920Z BECMG 2916/2919 16010KT 7000 TSRA BKN030 FEW040CB
Bolivia
TAF SLLP 290435Z 2906/3006 08006KT 4000E VCFG FEW003 SCT013 FEW017CB TX15/2920Z TN04/2910Z PROB30 TEMPO 2909/2911 6000 SHRA BECMG 2912/2914 13008KT 9999 NSW SCT015 TEMPO 2917/2921 06012KT 8000 TSRA SCT017 FEW020CB
Brasil
TAF SBBR 290400Z 2906/3006 23003KT 8000 NSC TN20/2909Z TX30/2917Z PROB30 2906/2909 4000 BR BKN010 BECMG 2914/2916 13007KT SCT030 FEW045TCU PROB40 TEMPO 2918/2924 TS SCT040 FEW045CB BECMG 3000/3002 19005KT 8000 NSC RMK PDA
TAF SBRJ 290240Z 2906/2918 18005KT 7000 BKN020 TN22/2908Z TX27/2918Z BECMG 2906/2909 14005KT 4000 BR BECMG 2909/2912 7000 NSWBKN017 BECMG 2912/2914 16010KT BECMG 2915/2917 14010KT RMK PGW
TAF SBSP 290219Z 2906/3006 15010KT 9999 SCT015 TX24/2918Z TN15/3006Z PROB30 2908/2911 BKN009 BECMG 2912/2914 SCT030 TEMPO 2915/2918 BKN035 BECMG 2920/2922 BKN015 BECMG 3000/3002 00000KT 8000 FEW020 RMK PGN
TAF SBGR 290219Z 2906/3012 08005KT 9999 SCT017 TX25/2918Z TN14/3009Z PROB30 2907/2910 5000 BR BKN008 BECMG 2912/2914 14010KT SCT030 TEMPO 2915/2919 BKN035 BECMG 2921/2923 BKN015 BECMG 3000/3002 08003KT 8000 FEW020 PROB30 3007/3010 5000 BR BKN006 RMK PGN
TAF SBFI 290200Z 2906/3006 08008KT CAVOK TN20/2909Z TX31/2918Z BECMG 2912/2914 9999 SCT040 BECMG 2917/2919 12006KT CAVOK RMK PEB
TAF SBFL 290200Z 2906/3006 18008KT 9999 BKN020 TN19/2909Z TX25/2918Z BECMG 2911/2913 17008KT SCT030 BECMG 2913/2915 13006KT CAVOK BECMG 2922/29 24 17006KT 9999 SCT020 RMK PEB
TAF SBPA 290200Z 2906/3006 10010KT CAVOK TN18/2908Z TX28/2918Z PROB40 2909/2911 3000 DZ BR SCT002 BECMG 2911/2913 13012KT 9999 SCT030 BECM G 2920/2922 09012KT CAVOK RMK PEB
Colombia
TAF SKBO 290500Z 2906/3006 VRB02KT 9999 SCT015 BKN080 TEMPO 2906/2910 5000 BCFG DZ BECMG 2918/2920 25010KT PROB40 TEMPO 2920/2924 7000 VCSH SCT017CB BECMG 300/3002 VRB02KT TX20/2918Z TN10/2911Z
Chile
TAF COR SCCI 290508Z 2906/3006 15007KT 9999 FEW005 SCT015 TN06/2910Z TX14/2919Z TEMPO 2906/2912 VRB03KT 2000 BR DZ SCT004 BKN010 BECMG 2906/2908 23006KT BECMG 2906/2908 23006KT BECMG 2912/2914 22013KT BECMG 2922/3000 20010KT TEMPO 2923/3002 7000 BR DZ FEW005 SCT012
TAF SCEL 290410Z 2906/3006 16005KT CAVOK TX23/2919Z TN10/2910Z TEMPO 2906/2913 VRB02KT 5000 HZ NSC BECMG 2915/2917 19008KT FEW030 BECMG 2918/2920 21012KT SCT060 SCT100 BECMG 3000/3002 16006KT BKN050
Ecuador
SEQM 290425Z 2906/3006 00000KT 3000 BCFG SCT010 BKN016 TEMPO 2910/2912 0500 FM291200 VRB03KT 9999 BKN023 BKN080 BECMG 2917/2919 36012KT TEMPO 2919/2921 SHRA FM292300 02004KT 9999 SCT023 SCT070 TX21/2919Z TN12/2911Z
EEUU
KLGA 290917Z 2909/3006 35016G22KT P6SM SCT015 BKN025 FM291200 34016G24KT P6SM SCT040 SCT250 FM292300 35012G18KT P6SM FEW250 FM300200 35012KT P6SM FEW250
KJFK 290917Z 2909/3012 35016G22KT P6SM SCT015 BKN025 FM291200 34016G24KT P6SM SCT040 SCT250 FM292300 35012G18KT P6SM FEW250 FM300200 35012KT P6SM FEW250 FM300700 35009KT P6SM FEW250
KMIA 290855Z 2909/3006 VRB02KT P6SM FEW025 FM291500 12010KT P6SM SCT035 SCT070 FM300000 12004KT P6SM SKC
KIAD 290834Z 2909/3012 35008KT P6SM BKN025 BKN050 FM291100 35008G15KT P6SM BKN025 FM291300 35009G15KT P6SM SCT035 FM291500 35009KT P6SM FEW040 FM300600 03006KT P6SM SCT050
KDCA 290834Z 2909/3006 35007G14KT P6SM BKN030 FM291300 35008G15KT P6SM SCT050 FM300000 03007KT P6SM FEW040
España
TAF AMD LEBL 290527Z 2906/3006 VRB04KT 9999 FEW030 TX19/2913Z TN10/3006Z TEMPO 2906/2910 34012G23KT BECMG 2910/2912 22010KT BECMG 2920/2922 26003KT PROB30 TEMPO 3004/3006 3000 BR BKN009
TAF LEMD 290500Z 2906/3012 VRB05KT CAVOK TX20/2915Z TN03/2906Z
Francia
TAF LFPO 290500Z 2906/3012 20007KT CAVOK TEMPO 2910/2915 BKN035 BECMG 2917/2919 17005KT
Inglaterra
TAF AMD EGLL 291027Z 2910/3012 22012KT 9999 BKN018 TEMPO 2910/2912 BKN014 PROB30 TEMPO 2921/3006 8000 -SHRA
Panamá
TAF COR MPTO 290853Z 2906/3012 04005KT 9999 FEW018 BECMG 2918/2922 03008KT SCT018 BECMG 2922/3002 03008KT 9000 FEW018 BKN080
Paraguay
TAF SGAS 290358Z 2906/3006 12003KT CAVOK TX34/2919Z TN21/2910Z BECMG 2912/2915 05007KT 9999 SCT033
Venezuela
TAF SVMI 290400Z 2906/3006 09010KT 9999 FEW016 SCT016 TX31/18Z TN24/08Z BECMG 2906/2910 00000KT SCT016

* Datos extraidos del Text DataServer de la NOAA (NOAA TEXT DATA SERVER)

Instituto Uruguayo de Meteorología

Dr. Javier Barrios Amorín 1488 - CP 11200
1895 int 108

Montevideo - Uruguay